Time;durP1;ratioP1;P1;durP2;ratioP2;P2;SDS_P1;SDS_P2;PMS_P1;PMS_P2;Temp;Humidity;BMP_temperature;BMP_pressure;BME280_temperature;BME280_humidity;BME280_pressure;Samples;Min_cycle;Max_cycle;Signal;HPM_P1;HPM_P2
2021/06/04 00:01:36;;;;;;;4.30;3.20;;;13.00;99.90;;;;;;4994908;28;20053;-73
2021/06/04 00:04:02;;;;;;;3.78;2.83;;;12.90;99.90;;;;;;5012227;28;20038;-72
2021/06/04 00:06:28;;;;;;;5.00;3.10;;;12.90;99.90;;;;;;4994878;28;20030;-73
2021/06/04 00:08:54;;;;;;;7.07;3.40;;;12.90;99.90;;;;;;5012364;28;20092;-72
2021/06/04 00:11:30;;;;;;;4.63;3.00;;;12.90;99.90;;;;;;4994648;28;20034;-73
2021/06/04 00:14:04;;;;;;;4.30;3.00;;;12.90;99.90;;;;;;5012178;28;20022;-72
2021/06/04 00:16:34;;;;;;;4.28;3.10;;;12.90;99.90;;;;;;5012313;28;20033;-73
2021/06/04 00:19:04;;;;;;;5.10;2.85;;;12.80;99.90;;;;;;4994553;28;20068;-73
2021/06/04 00:21:34;;;;;;;4.93;3.20;;;12.80;99.90;;;;;;5011978;28;20046;-73
2021/06/04 00:24:02;;;;;;;5.15;3.50;;;12.80;99.90;;;;;;5012219;28;20059;-72
2021/06/04 00:26:29;;;;;;;4.18;3.08;;;12.80;99.90;;;;;;5011984;28;20026;-72
2021/06/04 00:28:56;;;;;;;5.40;3.20;;;12.80;99.90;;;;;;5011779;28;20033;-72
2021/06/04 00:31:21;;;;;;;4.13;3.10;;;12.80;99.90;;;;;;5012203;28;20444;-73
2021/06/04 00:33:48;;;;;;;5.15;3.35;;;12.80;99.90;;;;;;4994074;28;20125;-72
2021/06/04 00:36:15;;;;;;;4.35;3.22;;;12.80;99.90;;;;;;5012005;28;20029;-72
2021/06/04 00:38:40;;;;;;;4.32;3.60;;;12.80;99.90;;;;;;5012057;28;20472;-72
2021/06/04 00:41:13;;;;;;;4.65;3.13;;;12.70;99.90;;;;;;4993361;28;20117;-73
2021/06/04 00:43:38;;;;;;;5.22;3.70;;;12.70;99.90;;;;;;5011516;28;20022;-73
2021/06/04 00:46:07;;;;;;;4.43;3.38;;;12.60;99.90;;;;;;5011604;28;20033;-72
2021/06/04 00:48:34;;;;;;;6.22;3.65;;;12.60;99.90;;;;;;5011864;28;20510;-73
2021/06/04 00:51:18;;;;;;;6.85;3.63;;;12.50;99.90;;;;;;5011546;28;20099;-72
2021/06/04 00:53:46;;;;;;;4.43;3.53;;;12.50;99.90;;;;;;5011584;28;20492;-72
2021/06/04 00:56:12;;;;;;;5.28;3.47;;;12.50;99.90;;;;;;5011533;28;20021;-72
2021/06/04 00:58:44;;;;;;;5.63;3.58;;;12.50;99.90;;;;;;5012150;28;20033;-72
2021/06/04 01:01:14;;;;;;;3.90;2.92;;;12.40;99.90;;;;;;5011437;28;20073;-72
2021/06/04 01:03:46;;;;;;;5.32;3.75;;;12.40;99.90;;;;;;5011352;28;20076;-72
2021/06/04 01:06:33;;;;;;;5.35;3.83;;;12.40;99.90;;;;;;4993964;28;20547;-72
2021/06/04 01:09:08;;;;;;;6.78;4.15;;;12.40;99.90;;;;;;5011264;28;20037;-72
2021/06/04 01:11:42;;;;;;;7.70;3.75;;;12.40;99.90;;;;;;5011195;28;20040;-72
2021/06/04 01:14:27;;;;;;;6.25;3.90;;;12.30;99.90;;;;;;5011007;28;20029;-73
2021/06/04 01:17:01;;;;;;;6.65;4.07;;;12.30;99.90;;;;;;4993517;28;20026;-72
2021/06/04 01:19:44;;;;;;;6.55;4.07;;;12.30;99.90;;;;;;4993351;28;20430;-72
2021/06/04 01:22:22;;;;;;;5.13;3.63;;;12.30;99.90;;;;;;5011019;28;20057;-72
2021/06/04 01:24:55;;;;;;;4.82;3.45;;;12.30;99.90;;;;;;5010829;28;20033;-72
2021/06/04 01:27:29;;;;;;;5.97;3.90;;;12.30;99.90;;;;;;5011206;28;20036;-72
2021/06/04 01:30:09;;;;;;;5.32;3.70;;;12.40;99.90;;;;;;5011006;28;20033;-73
2021/06/04 01:32:36;;;;;;;4.70;3.75;;;12.40;99.90;;;;;;5010928;28;20116;-72
2021/06/04 01:35:09;;;;;;;7.18;4.35;;;12.50;99.90;;;;;;5010518;28;20113;-73
2021/06/04 01:37:35;;;;;;;;;;;12.50;99.90;;;;;;5011147;28;20080;-72
2021/06/04 01:40:08;;;;;;;8.00;3.58;;;12.50;99.90;;;;;;5011164;28;19916;-72
2021/06/04 01:42:38;;;;;;;4.97;3.53;;;12.60;99.90;;;;;;5010417;28;20022;-72
2021/06/04 01:45:15;;;;;;;5.45;3.63;;;12.60;99.90;;;;;;5010508;28;20466;-72
2021/06/04 01:47:45;;;;;;;5.68;3.40;;;12.60;99.90;;;;;;5010544;28;20022;-72
2021/06/04 01:50:25;;;;;;;7.97;4.38;;;12.70;99.90;;;;;;5010722;28;20014;-72
2021/06/04 01:52:54;;;;;;;5.97;4.05;;;12.70;99.90;;;;;;4992414;28;20018;-72
2021/06/04 01:55:33;;;;;;;4.28;3.53;;;12.70;99.90;;;;;;4992803;28;20026;-72
2021/06/04 01:58:13;;;;;;;5.25;3.30;;;12.70;99.90;;;;;;4992785;28;20022;-73
2021/06/04 02:00:49;;;;;;;4.75;3.55;;;12.70;99.90;;;;;;4992695;28;20026;-73
2021/06/04 02:03:17;;;;;;;4.70;3.63;;;12.80;99.90;;;;;;5010190;28;20040;-72
2021/06/04 02:05:44;;;;;;;5.82;3.88;;;12.80;99.90;;;;;;5010275;28;20451;-73
2021/06/04 02:08:13;;;;;;;4.30;3.40;;;12.80;99.90;;;;;;5010213;28;20101;-72
2021/06/04 02:10:44;;;;;;;4.57;3.72;;;12.80;99.90;;;;;;4992580;28;20018;-72
2021/06/04 02:13:11;;;;;;;4.68;3.50;;;12.80;99.90;;;;;;5010139;28;20064;-73
2021/06/04 02:15:40;;;;;;;5.18;3.70;;;12.80;99.90;;;;;;5010334;28;20491;-73
2021/06/04 02:18:15;;;;;;;5.43;3.58;;;12.80;99.90;;;;;;5010079;28;20029;-72
2021/06/04 02:20:54;;;;;;;5.18;3.78;;;12.70;99.90;;;;;;4992469;28;20487;-72
2021/06/04 02:23:32;;;;;;;4.57;3.58;;;12.70;99.90;;;;;;4992278;28;20026;-73
2021/06/04 02:26:16;;;;;;;6.15;4.40;;;12.60;99.90;;;;;;5010170;28;20064;-72
2021/06/04 02:29:07;;;;;;;5.22;3.72;;;12.50;99.90;;;;;;5010171;28;20032;-73
2021/06/04 02:31:42;;;;;;;5.70;4.75;;;12.40;99.90;;;;;;4992271;28;20030;-72
2021/06/04 02:34:16;;;;;;;6.50;5.15;;;12.40;99.90;;;;;;5009993;28;20522;-72
2021/06/04 02:36:49;;;;;;;8.13;4.93;;;12.30;99.90;;;;;;4992451;28;20072;-73
2021/06/04 02:39:18;;;;;;;;;;;12.20;99.90;;;;;;4992717;28;20029;-73
2021/06/04 02:41:54;;;;;;;6.28;4.45;;;12.10;99.90;;;;;;5009912;28;20363;-72
2021/06/04 02:44:30;;;;;;;6.60;4.95;;;12.00;99.90;;;;;;4992032;28;20033;-72
2021/06/04 02:47:05;;;;;;;6.00;4.82;;;12.00;99.90;;;;;;5009778;28;20076;-73
2021/06/04 02:49:33;;;;;;;5.35;4.35;;;11.90;99.90;;;;;;4992076;28;20021;-72
2021/06/04 02:52:09;;;;;;;6.35;4.78;;;11.90;99.90;;;;;;5009523;28;20022;-72
2021/06/04 02:54:43;;;;;;;5.13;4.63;;;11.80;99.90;;;;;;4991942;28;20068;-72
2021/06/04 02:57:12;;;;;;;6.65;4.43;;;11.70;99.90;;;;;;5009848;28;20034;-72
2021/06/04 02:59:41;;;;;;;6.10;4.38;;;11.60;99.90;;;;;;4992479;28;20411;-73
2021/06/04 03:02:23;;;;;;;6.85;5.13;;;11.60;99.90;;;;;;4991994;28;20022;-72
2021/06/04 03:04:53;;;;;;;5.75;5.15;;;11.50;99.90;;;;;;4992485;28;20104;-72
2021/06/04 03:07:26;;;;;;;7.07;4.78;;;11.40;99.90;;;;;;5013567;28;20501;-72
2021/06/04 03:09:54;;;;;;;6.78;5.38;;;11.40;99.90;;;;;;4996034;28;20022;-72
2021/06/04 03:12:30;;;;;;;6.75;5.18;;;11.30;99.90;;;;;;5013551;28;20033;-73
2021/06/04 03:14:58;;;;;;;5.50;4.88;;;11.30;99.90;;;;;;5013536;28;20518;-72
2021/06/04 03:17:27;;;;;;;6.38;4.78;;;11.20;99.90;;;;;;5013462;28;20037;-73
2021/06/04 03:19:53;;;;;;;5.63;4.28;;;11.20;99.90;;;;;;4995782;28;20026;-72
2021/06/04 03:22:33;;;;;;;6.53;4.53;;;11.20;99.90;;;;;;5013380;28;20029;-72
2021/06/04 03:25:28;;;;;;;6.60;5.00;;;11.20;99.90;;;;;;4996880;28;20030;-72
2021/06/04 03:27:54;;;;;;;6.03;5.30;;;11.10;99.90;;;;;;4988414;28;20114;-72
2021/06/04 03:30:24;;;;;;;5.82;4.90;;;11.10;99.90;;;;;;5013569;28;20072;-72
2021/06/04 03:32:50;;;;;;;5.82;5.22;;;11.20;99.90;;;;;;4996118;28;20029;-72
2021/06/04 03:35:16;;;;;;;5.93;4.72;;;11.10;99.90;;;;;;5012972;28;20030;-72
2021/06/04 03:37:43;;;;;;;6.50;5.80;;;11.20;99.90;;;;;;4995463;28;20037;-73
2021/06/04 03:40:13;;;;;;;8.70;6.00;;;11.20;99.90;;;;;;5013327;28;20495;-72
2021/06/04 03:42:39;;;;;;;7.57;6.20;;;11.20;99.90;;;;;;5012941;28;20392;-72
2021/06/04 03:45:08;;;;;;;12.35;5.05;;;11.30;99.90;;;;;;4995288;28;20021;-72
2021/06/04 03:47:34;;;;;;;6.50;5.10;;;11.30;99.90;;;;;;5012857;28;20068;-72
2021/06/04 03:50:00;;;;;;;7.70;6.30;;;11.30;99.90;;;;;;5012803;28;20018;-72
2021/06/04 03:52:26;;;;;;;6.82;5.22;;;11.30;99.90;;;;;;5012924;28;20033;-72
2021/06/04 03:54:55;;;;;;;6.32;5.38;;;11.30;99.90;;;;;;5013412;28;20084;-72
2021/06/04 03:57:26;;;;;;;6.60;5.47;;;11.30;99.90;;;;;;4995059;28;20113;-72
2021/06/04 03:59:51;;;;;;;9.80;6.28;;;11.30;99.90;;;;;;4995173;28;20022;-72
2021/06/04 04:02:20;;;;;;;8.73;6.10;;;11.30;99.90;;;;;;5012546;28;20045;-73
2021/06/04 04:04:46;;;;;;;6.57;5.72;;;11.50;99.90;;;;;;4994845;28;20026;-72
2021/06/04 04:07:12;;;;;;;6.95;5.38;;;11.50;99.90;;;;;;5012565;28;20108;-72
2021/06/04 04:09:38;;;;;;;6.95;5.05;;;11.60;99.90;;;;;;5012516;28;20037;-72
2021/06/04 04:12:05;;;;;;;6.43;5.30;;;11.60;99.90;;;;;;5012452;28;20022;-72
2021/06/04 04:14:30;;;;;;;7.35;5.82;;;11.70;99.90;;;;;;4994678;28;20066;-72
2021/06/04 04:16:56;;;;;;;8.10;6.05;;;11.70;99.90;;;;;;5012228;28;20065;-72
2021/06/04 04:19:23;;;;;;;7.45;5.93;;;11.80;99.90;;;;;;5012295;28;20121;-73
2021/06/04 04:21:51;;;;;;;6.10;5.38;;;11.90;99.90;;;;;;5012419;28;20528;-73
2021/06/04 04:24:28;;;;;;;7.35;5.82;;;12.00;99.90;;;;;;5012009;28;20034;-72
2021/06/04 04:26:54;;;;;;;9.43;6.63;;;12.00;99.90;;;;;;5012527;28;20111;-72
2021/06/04 04:29:20;;;;;;;7.95;6.18;;;12.10;99.90;;;;;;5012173;28;20032;-72
2021/06/04 04:31:50;;;;;;;7.80;5.82;;;12.20;99.90;;;;;;5012752;28;20392;-72
2021/06/04 04:34:16;;;;;;;7.47;5.00;;;12.30;99.90;;;;;;5012021;28;20392;-73
2021/06/04 04:36:48;;;;;;;9.10;6.18;;;12.40;99.90;;;;;;5012273;28;20072;-73
2021/06/04 04:39:21;;;;;;;8.15;6.07;;;12.50;99.90;;;;;;5012438;28;20109;-72
2021/06/04 04:41:48;;;;;;;6.63;5.70;;;12.60;99.90;;;;;;5012083;28;20553;-72
2021/06/04 04:44:16;;;;;;;9.35;5.93;;;12.80;99.90;;;;;;5012042;28;20031;-72
2021/06/04 04:46:42;;;;;;;8.32;6.18;;;12.90;99.90;;;;;;5011900;28;20064;-72
2021/06/04 04:49:07;;;;;;;9.38;7.63;;;13.00;99.90;;;;;;4994260;28;20026;-72
2021/06/04 04:51:34;;;;;;;10.15;7.00;;;13.20;99.90;;;;;;4994328;28;20033;-72
2021/06/04 04:54:00;;;;;;;7.65;6.30;;;13.30;99.90;;;;;;4994128;28;20102;-72
2021/06/04 04:56:26;;;;;;;11.25;6.93;;;13.50;99.90;;;;;;4994309;28;20034;-72
2021/06/04 04:58:52;;;;;;;7.57;5.97;;;13.70;99.90;;;;;;4994032;28;20467;-72
2021/06/04 05:01:19;;;;;;;10.55;6.32;;;13.90;99.90;;;;;;5011591;28;20026;-73
2021/06/04 05:03:45;;;;;;;10.30;7.13;;;14.10;99.90;;;;;;5011683;28;20471;-73
2021/06/04 05:06:11;;;;;;;9.35;6.90;;;14.30;99.90;;;;;;5011643;28;20585;-73
2021/06/04 05:08:36;;;;;;;13.02;8.35;;;14.60;99.90;;;;;;4994234;28;20069;-72
2021/06/04 05:11:04;;;;;;;16.00;8.07;;;14.80;99.90;;;;;;5011879;28;20021;-73
2021/06/04 05:13:30;;;;;;;16.80;8.85;;;15.00;99.90;;;;;;5011249;28;20101;-72
2021/06/04 05:15:56;;;;;;;12.93;9.38;;;15.20;99.90;;;;;;4993679;28;20052;-72
2021/06/04 05:18:22;;;;;;;17.42;9.57;;;15.30;99.90;;;;;;5011268;28;20107;-72
2021/06/04 05:20:48;;;;;;;16.15;9.98;;;15.50;99.90;;;;;;5011251;28;20487;-72
2021/06/04 05:23:16;;;;;;;14.48;10.13;;;15.50;99.90;;;;;;5010971;28;20056;-72
2021/06/04 05:25:44;;;;;;;14.93;9.77;;;15.60;99.90;;;;;;4993519;28;20026;-72
2021/06/04 05:28:14;;;;;;;14.13;9.05;;;15.70;99.90;;;;;;5010674;28;20018;-73
2021/06/04 05:30:42;;;;;;;14.27;8.23;;;15.80;99.90;;;;;;5011181;28;20017;-72
2021/06/04 05:33:32;;;;;;;11.45;8.57;;;16.00;99.90;;;;;;5010998;28;20034;-71
2021/06/04 05:36:00;;;;;;;15.32;8.57;;;16.00;99.90;;;;;;5010973;28;20410;-72
2021/06/04 05:38:27;;;;;;;11.00;8.63;;;16.20;99.90;;;;;;5010854;28;20087;-72
2021/06/04 05:40:53;;;;;;;12.23;7.68;;;16.20;99.90;;;;;;4993287;28;20033;-72
2021/06/04 05:43:24;;;;;;;12.75;8.20;;;16.40;99.90;;;;;;5010649;28;20022;-73
2021/06/04 05:45:50;;;;;;;12.30;8.30;;;16.50;99.90;;;;;;5010800;28;20022;-72
2021/06/04 05:48:16;;;;;;;11.55;8.18;;;16.60;99.90;;;;;;4993132;28;20029;-72
2021/06/04 05:50:46;;;;;;;14.82;8.20;;;16.70;99.90;;;;;;5011146;28;20022;-72
2021/06/04 05:53:15;;;;;;;10.80;8.13;;;16.70;99.90;;;;;;5010554;28;20500;-73
2021/06/04 05:55:41;;;;;;;8.57;7.65;;;16.80;99.90;;;;;;4993010;28;20121;-72
2021/06/04 05:58:12;;;;;;;9.15;7.00;;;16.90;99.90;;;;;;5010670;28;20033;-72
2021/06/04 06:00:42;;;;;;;8.57;7.35;;;17.00;99.90;;;;;;5011060;28;20022;-72
2021/06/04 06:03:08;;;;;;;9.10;7.40;;;17.10;99.90;;;;;;5010327;28;20022;-73
2021/06/04 06:05:34;;;;;;;8.63;7.03;;;17.20;99.90;;;;;;5010582;28;20033;-73
2021/06/04 06:08:00;;;;;;;9.95;7.13;;;17.50;99.90;;;;;;5010401;28;20088;-72
2021/06/04 06:10:26;;;;;;;8.40;6.22;;;17.70;99.90;;;;;;5010466;28;20041;-72
2021/06/04 06:12:53;;;;;;;10.98;7.25;;;17.80;99.90;;;;;;4992633;28;20483;-72
2021/06/04 06:15:22;;;;;;;10.60;7.50;;;18.10;99.90;;;;;;5010201;28;20084;-72
2021/06/04 06:17:48;;;;;;;10.48;7.03;;;18.20;99.90;;;;;;5010283;28;20022;-72
2021/06/04 06:20:16;;;;;;;9.07;5.97;;;18.50;99.90;;;;;;5010184;28;20088;-71
2021/06/04 06:22:42;;;;;;;7.70;6.05;;;18.70;99.90;;;;;;4992632;28;20092;-72
2021/06/04 06:25:14;;;;;;;8.80;6.35;;;18.80;99.90;;;;;;4992416;28;20026;-72
2021/06/04 06:27:40;;;;;;;9.05;5.78;;;19.00;99.90;;;;;;4992631;28;20483;-72
2021/06/04 06:30:07;;;;;;;8.70;5.50;;;19.10;99.90;;;;;;5010403;28;20112;-72
2021/06/04 06:32:33;;;;;;;9.00;6.40;;;19.20;99.90;;;;;;5010151;28;20033;-73
2021/06/04 06:35:00;;;;;;;9.88;6.90;;;19.20;99.90;;;;;;4992292;28;20030;-73
2021/06/04 06:37:25;;;;;;;8.52;6.60;;;19.40;99.90;;;;;;4992479;28;20026;-73
2021/06/04 06:39:51;;;;;;;8.27;6.18;;;19.50;99.90;;;;;;5010042;28;20512;-73
2021/06/04 06:42:16;;;;;;;9.02;6.28;;;19.60;99.90;;;;;;4992304;28;20026;-73
2021/06/04 06:44:42;;;;;;;9.43;6.22;;;19.60;99.90;;;;;;5010225;28;20211;-73
2021/06/04 06:47:08;;;;;;;8.18;6.43;;;19.70;99.90;;;;;;5010085;28;20053;-72
2021/06/04 06:49:33;;;;;;;9.05;6.25;;;19.80;99.90;;;;;;4992213;28;20028;-73
2021/06/04 06:51:59;;;;;;;7.78;6.40;;;19.90;99.90;;;;;;4992199;28;20594;-73
2021/06/04 06:54:28;;;;;;;8.98;6.75;;;20.10;99.90;;;;;;4992045;28;20021;-73
2021/06/04 06:56:56;;;;;;;10.82;6.60;;;20.20;99.90;;;;;;5009969;28;20462;-73
2021/06/04 06:59:25;;;;;;;10.23;6.30;;;20.40;99.90;;;;;;4992069;28;20022;-73
2021/06/04 07:01:51;;;;;;;7.95;5.93;;;20.50;99.90;;;;;;5009617;28;20098;-73
2021/06/04 07:04:17;;;;;;;8.88;6.15;;;20.70;99.90;;;;;;4991834;28;20072;-73
2021/06/04 07:06:43;;;;;;;12.93;8.00;;;20.80;99.90;;;;;;4991939;28;20018;-73
2021/06/04 07:09:11;;;;;;;9.90;7.45;;;20.70;99.90;;;;;;4992081;28;20034;-73
2021/06/04 07:11:40;;;;;;;15.05;7.78;;;20.80;99.90;;;;;;4991949;28;20502;-73
2021/06/04 07:14:07;;;;;;;10.23;6.97;;;20.80;99.90;;;;;;4991824;28;20030;-73
2021/06/04 07:16:34;;;;;;;12.95;8.00;;;20.90;99.90;;;;;;4991820;28;20029;-73
2021/06/04 07:18:59;;;;;;;13.70;7.60;;;20.90;99.90;;;;;;5009467;28;20108;-73
2021/06/04 07:21:26;;;;;;;11.02;7.50;;;21.10;99.30;;;;;;5009649;28;20073;-74
2021/06/04 07:23:54;;;;;;;11.38;7.65;;;21.30;98.70;;;;;;4991672;28;20030;-73
2021/06/04 07:26:20;;;;;;;11.05;7.15;;;21.40;98.40;;;;;;5009430;28;20415;-73
2021/06/04 07:28:48;;;;;;;10.35;6.95;;;21.60;97.60;;;;;;4991843;28;20034;-73
2021/06/04 07:31:15;;;;;;;10.15;8.07;;;21.70;97.40;;;;;;4991797;28;20029;-73
2021/06/04 07:33:47;;;;;;;9.48;7.13;;;21.80;97.10;;;;;;5009146;28;20040;-74
2021/06/04 07:36:22;;;;;;;7.38;6.38;;;21.90;97.00;;;;;;4991919;28;20036;-74
2021/06/04 07:38:49;;;;;;;12.30;7.53;;;22.00;95.90;;;;;;5009361;28;20029;-74
2021/06/04 07:41:15;;;;;;;12.45;8.35;;;22.20;94.90;;;;;;5009247;28;20026;-73
2021/06/04 07:43:44;;;;;;;11.23;8.68;;;22.20;94.10;;;;;;5009122;28;20399;-74
2021/06/04 07:46:12;;;;;;;12.80;8.73;;;22.30;94.90;;;;;;5009207;28;20022;-73
2021/06/04 07:48:39;;;;;;;13.05;8.25;;;22.20;94.70;;;;;;5009235;28;20026;-73
2021/06/04 07:51:10;;;;;;;9.05;7.88;;;22.10;94.50;;;;;;5010242;28;20026;-74
2021/06/04 07:53:36;;;;;;;10.25;6.85;;;22.20;93.70;;;;;;5013096;28;20025;-74
2021/06/04 07:56:03;;;;;;;9.23;6.75;;;22.20;93.00;;;;;;5012831;28;20032;-74
2021/06/04 07:58:30;;;;;;;10.10;7.35;;;22.30;93.80;;;;;;4995238;28;20446;-74
2021/06/04 08:00:56;;;;;;;13.27;7.43;;;22.50;93.30;;;;;;5012732;28;20041;-74
2021/06/04 08:03:24;;;;;;;10.98;7.22;;;22.50;92.50;;;;;;5012569;28;20104;-73
2021/06/04 08:05:50;;;;;;;9.27;6.18;;;22.80;92.30;;;;;;5012674;28;20097;-73
2021/06/04 08:08:17;;;;;;;8.07;5.68;;;23.00;91.40;;;;;;5012577;28;20022;-73
2021/06/04 08:10:43;;;;;;;6.95;5.20;;;23.10;89.10;;;;;;5012568;28;20018;-73
2021/06/04 08:13:14;;;;;;;7.57;4.72;;;23.30;87.70;;;;;;5012453;28;20108;-74
2021/06/04 08:15:49;;;;;;;5.47;4.43;;;23.50;85.40;;;;;;5012342;28;20531;-74
2021/06/04 08:18:15;;;;;;;5.80;4.93;;;23.70;84.60;;;;;;5012425;28;20495;-73
2021/06/04 08:20:42;;;;;;;10.55;5.50;;;23.90;81.50;;;;;;5014786;28;20026;-74
2021/06/04 08:23:12;;;;;;;7.05;4.90;;;23.90;79.50;;;;;;5014165;28;20100;-74
2021/06/04 08:25:47;;;;;;;6.38;4.95;;;24.10;80.50;;;;;;5012248;28;20028;-73
2021/06/04 08:28:13;;;;;;;8.60;4.75;;;24.30;78.50;;;;;;4994741;28;20506;-73
2021/06/04 08:30:40;;;;;;;5.10;4.60;;;24.40;77.90;;;;;;4994644;28;20500;-73
2021/06/04 08:33:06;;;;;;;5.18;4.57;;;24.70;76.30;;;;;;5012011;28;20085;-74
2021/06/04 08:35:33;;;;;;;8.10;5.20;;;24.70;73.90;;;;;;4994603;28;20030;-74
2021/06/04 08:37:59;;;;;;;11.93;5.32;;;25.00;72.70;;;;;;4994513;28;20022;-73
2021/06/04 08:40:36;;;;;;;7.30;4.70;;;25.30;73.00;;;;;;4994437;28;20026;-73
2021/06/04 08:43:25;;;;;;;5.78;4.30;;;25.50;69.30;;;;;;5012096;28;20026;-73
2021/06/04 08:46:24;;;;;;;5.78;4.50;;;25.60;67.80;;;;;;5011840;28;20057;-73
2021/06/04 08:48:57;;;;;;;5.45;4.43;;;25.90;66.60;;;;;;5011884;28;20025;-73
2021/06/04 08:51:36;;;;;;;6.85;4.45;;;26.10;65.80;;;;;;4994206;28;20095;-74
2021/06/04 08:54:29;;;;;;;7.70;3.90;;;26.40;66.90;;;;;;4994209;28;20053;-74
2021/06/04 08:57:32;;;;;;;7.20;4.50;;;26.90;63.40;;;;;;4994463;28;20068;-74
2021/06/04 09:00:00;;;;;;;5.32;4.25;;;27.30;60.90;;;;;;4994078;28;20514;-74
2021/06/04 09:02:44;;;;;;;4.70;4.15;;;27.60;57.70;;;;;;4992643;28;20040;-75
2021/06/04 09:05:15;;;;;;;6.82;3.50;;;27.70;57.50;;;;;;4993952;28;20488;-74
2021/06/04 09:07:44;;;;;;;7.65;3.40;;;27.60;57.00;;;;;;5011615;28;20435;-74
2021/06/04 09:10:15;;;;;;;4.78;3.25;;;27.80;54.20;;;;;;4993882;28;20026;-74
2021/06/04 09:13:01;;;;;;;4.90;3.80;;;28.00;54.60;;;;;;4993853;28;20482;-74
2021/06/04 09:15:31;;;;;;;7.85;3.90;;;28.20;53.50;;;;;;5011370;28;20105;-74
2021/06/04 09:18:18;;;;;;;4.93;3.17;;;28.00;54.90;;;;;;5011648;28;20022;-74
2021/06/04 09:20:43;;;;;;;6.88;3.78;;;27.90;54.40;;;;;;4993606;28;20121;-74
2021/06/04 09:23:12;;;;;;;4.60;3.67;;;28.00;53.40;;;;;;4993438;28;20117;-74
2021/06/04 09:25:39;;;;;;;4.88;3.70;;;28.20;51.10;;;;;;5011229;28;20053;-74
2021/06/04 09:28:14;;;;;;;6.50;3.90;;;28.30;52.30;;;;;;4993612;28;20021;-74
2021/06/04 09:30:49;;;;;;;5.90;3.97;;;28.70;51.30;;;;;;5011059;28;20018;-74
2021/06/04 09:33:18;;;;;;;4.38;3.72;;;29.30;50.80;;;;;;4993272;28;20041;-74
2021/06/04 09:36:05;;;;;;;4.72;3.03;;;29.60;49.40;;;;;;4993576;28;20406;-74
2021/06/04 09:38:48;;;;;;;4.35;3.42;;;30.30;45.80;;;;;;5010853;28;20415;-72
2021/06/04 09:41:13;;;;;;;;;;;31.00;47.00;;;;;;4993648;28;20124;-72
2021/06/04 09:43:39;;;;;;;4.82;3.42;;;31.70;45.80;;;;;;5010900;28;20359;-72
2021/06/04 09:46:08;;;;;;;3.42;3.00;;;32.60;44.30;;;;;;5010739;28;20430;-72
2021/06/04 09:48:35;;;;;;;4.82;3.00;;;33.60;41.70;;;;;;5010635;28;20513;-72
2021/06/04 09:51:22;;;;;;;3.35;2.70;;;36.40;37.70;;;;;;5010952;28;20025;-73
2021/06/04 09:53:49;;;;;;;5.65;3.15;;;38.90;31.50;;;;;;5010512;28;20030;-73
2021/06/04 09:56:26;;;;;;;4.95;2.80;;;41.70;28.90;;;;;;4993014;28;20053;-73
2021/06/04 09:59:13;;;;;;;3.20;2.58;;;44.00;26.80;;;;;;5010887;28;20022;-73
2021/06/04 10:01:48;;;;;;;3.70;2.67;;;46.20;24.50;;;;;;5010441;28;20022;-72
2021/06/04 10:04:36;;;;;;;4.90;2.50;;;47.40;22.80;;;;;;5010367;28;20105;-73
2021/06/04 10:07:16;;;;;;;3.05;2.60;;;48.40;21.70;;;;;;5009841;28;20046;-73
2021/06/04 10:09:43;;;;;;;3.35;2.58;;;48.20;21.40;;;;;;5010417;28;20034;-73
2021/06/04 10:12:29;;;;;;;4.50;3.10;;;48.40;21.70;;;;;;5010264;28;20072;-73
2021/06/04 10:15:00;;;;;;;5.55;2.65;;;48.30;21.40;;;;;;5009803;28;20054;-73
2021/06/04 10:19:57;;;;;;;3.85;2.65;;;48.30;21.00;;;;;;5010740;28;19932;-74
2021/06/04 10:22:32;;;;;;;2.75;2.35;;;49.20;21.40;;;;;;4992587;28;20030;-74
2021/06/04 10:25:00;;;;;;;5.50;2.95;;;50.40;21.20;;;;;;5009894;28;20026;-73
2021/06/04 10:27:30;;;;;;;2.78;2.50;;;51.30;20.40;;;;;;4992365;28;20108;-73
2021/06/04 10:30:04;;;;;;;2.67;2.47;;;51.40;19.60;;;;;;5010017;28;20022;-73
2021/06/04 10:32:36;;;;;;;3.50;2.67;;;51.70;19.10;;;;;;5010077;28;20026;-74
2021/06/04 10:35:13;;;;;;;3.08;2.67;;;51.30;19.30;;;;;;5009703;28;20496;-73
2021/06/04 10:37:46;;;;;;;4.78;2.65;;;50.50;18.60;;;;;;4992295;28;20026;-73
2021/06/04 10:40:21;;;;;;;3.72;2.72;;;49.50;18.80;;;;;;5010112;28;20022;-74
2021/06/04 10:43:17;;;;;;;4.07;1.90;;;49.00;18.90;;;;;;4992295;28;20022;-73
2021/06/04 10:46:14;;;;;;;4.97;3.20;;;50.00;19.20;;;;;;4992074;28;20025;-74
2021/06/04 10:49:02;;;;;;;2.45;2.20;;;49.70;18.80;;;;;;5010187;28;20025;-74
2021/06/04 10:51:48;;;;;;;3.92;1.90;;;50.70;18.30;;;;;;4992125;28;20123;-74
2021/06/04 10:54:19;;;;;;;2.63;2.25;;;51.20;18.10;;;;;;5009564;28;20382;-73
2021/06/04 10:57:02;;;;;;;3.35;2.75;;;51.60;18.10;;;;;;5009590;28;20022;-73
2021/06/04 10:59:56;;;;;;;2.92;2.40;;;51.60;17.60;;;;;;5009854;28;20052;-74
2021/06/04 11:02:41;;;;;;;3.25;2.03;;;49.70;17.50;;;;;;4992216;28;20426;-73
2021/06/04 11:05:26;;;;;;;3.40;2.33;;;50.60;18.00;;;;;;4991981;28;20026;-73
2021/06/04 11:08:14;;;;;;;2.42;2.10;;;51.50;17.80;;;;;;4991938;28;20514;-73
2021/06/04 11:10:49;;;;;;;2.20;2.00;;;51.30;17.00;;;;;;4991929;28;20030;-74
2021/06/04 11:13:26;;;;;;;3.70;2.33;;;50.90;17.10;;;;;;5009233;28;20040;-74
2021/06/04 11:16:13;;;;;;;2.72;2.28;;;51.20;17.70;;;;;;5009697;28;20533;-74
2021/06/04 11:18:47;;;;;;;3.63;2.05;;;50.70;17.30;;;;;;5009847;28;20464;-74
2021/06/04 11:21:35;;;;;;;2.60;2.40;;;50.30;17.80;;;;;;5009269;28;20559;-74
2021/06/04 11:24:13;;;;;;;3.88;2.30;;;49.90;17.70;;;;;;4991763;28;20506;-73
2021/06/04 11:26:53;;;;;;;2.90;2.30;;;49.80;17.90;;;;;;4993706;28;20121;-74
2021/06/04 11:29:33;;;;;;;3.10;2.30;;;50.60;17.50;;;;;;5013575;28;20064;-73
2021/06/04 11:32:02;;;;;;;3.42;2.22;;;51.60;17.20;;;;;;4995578;28;20030;-74
2021/06/04 11:34:38;;;;;;;2.10;1.90;;;50.00;17.60;;;;;;5016575;23;20093;-73
2021/06/04 11:37:07;;;;;;;2.67;2.08;;;49.90;18.00;;;;;;4992281;28;20034;-73
2021/06/04 11:39:36;;;;;;;2.05;1.95;;;50.50;17.70;;;;;;4993468;28;20198;-73
2021/06/04 11:42:08;;;;;;;2.58;2.38;;;50.40;17.20;;;;;;4993479;28;20480;-73
2021/06/04 11:44:43;;;;;;;3.10;1.83;;;49.70;17.50;;;;;;4992133;28;20037;-74
2021/06/04 11:47:12;;;;;;;3.08;2.35;;;50.30;17.80;;;;;;4993301;28;20050;-74
2021/06/04 11:49:52;;;;;;;3.92;2.42;;;50.40;17.50;;;;;;4993577;28;20019;-74
2021/06/04 11:52:40;;;;;;;3.60;2.33;;;49.80;17.80;;;;;;4993240;28;20030;-73
2021/06/04 11:55:27;;;;;;;3.00;2.00;;;49.30;17.80;;;;;;4991835;28;20456;-74
2021/06/04 11:57:59;;;;;;;2.58;1.83;;;49.30;17.50;;;;;;4993515;28;20431;-74
2021/06/04 12:00:55;;;;;;;1.83;1.73;;;50.10;17.70;;;;;;4991850;28;20022;-74
2021/06/04 12:03:33;;;;;;;2.88;2.20;;;50.70;18.10;;;;;;4991726;28;20022;-74
2021/06/04 12:06:28;;;;;;;2.10;1.90;;;50.50;17.40;;;;;;4993260;28;20030;-74
2021/06/04 12:08:59;;;;;;;1.90;1.80;;;50.80;17.00;;;;;;4991947;28;20498;-74
2021/06/04 12:11:33;;;;;;;3.50;1.98;;;51.30;17.50;;;;;;4992925;28;20106;-74
2021/06/04 12:13:58;;;;;;;1.77;1.67;;;51.80;17.40;;;;;;4993053;28;20022;-74
2021/06/04 12:16:32;;;;;;;2.20;2.00;;;52.80;17.50;;;;;;4993099;28;20048;-74
2021/06/04 12:19:27;;;;;;;2.47;2.20;;;53.60;17.90;;;;;;4993206;28;20026;-74
2021/06/04 12:21:57;;;;;;;2.63;2.42;;;53.50;16.00;;;;;;4991936;28;20018;-73
2021/06/04 12:24:29;;;;;;;2.30;2.05;;;53.40;16.40;;;;;;4993165;28;20031;-74
2021/06/04 12:27:13;;;;;;;2.50;2.30;;;53.60;15.80;;;;;;4991543;28;20060;-74
2021/06/04 12:29:38;;;;;;;2.95;2.20;;;53.40;16.10;;;;;;4993337;28;20488;-73
2021/06/04 12:32:09;;;;;;;2.75;1.90;;;52.80;16.90;;;;;;4991300;28;20033;-72
2021/06/04 12:34:35;;;;;;;2.10;2.00;;;52.60;17.30;;;;;;4992387;28;20026;-73
2021/06/04 12:37:22;;;;;;;2.92;2.30;;;52.40;17.70;;;;;;4992639;28;20076;-74
2021/06/04 12:40:25;;;;;;;3.25;2.17;;;51.80;17.80;;;;;;4992315;28;20015;-74
2021/06/04 12:43:22;;;;;;;2.63;2.10;;;50.90;17.60;;;;;;4992380;28;20022;-73
2021/06/04 12:46:02;;;;;;;2.30;2.10;;;48.60;19.30;;;;;;4992335;28;20117;-73
2021/06/04 12:48:40;;;;;;;2.28;2.08;;;46.80;21.30;;;;;;4992754;28;20076;-73
2021/06/04 12:51:16;;;;;;;2.33;2.13;;;45.70;21.90;;;;;;4992692;28;20034;-71
2021/06/04 12:53:48;;;;;;;2.95;2.05;;;45.10;22.10;;;;;;4992433;28;20383;-71
2021/06/04 12:56:20;;;;;;;2.70;2.00;;;44.30;23.00;;;;;;4992590;28;20019;-72
2021/06/04 12:59:03;;;;;;;2.88;2.30;;;43.90;23.10;;;;;;4991828;28;20122;-73
2021/06/04 13:01:31;;;;;;;4.05;2.30;;;43.30;22.60;;;;;;4992150;28;20109;-73
2021/06/04 13:04:20;;;;;;;2.67;2.00;;;42.50;23.80;;;;;;4991102;28;20109;-72
2021/06/04 13:06:51;;;;;;;2.60;2.30;;;41.60;24.00;;;;;;4991895;28;20105;-73
2021/06/04 13:09:35;;;;;;;3.33;2.30;;;40.90;23.50;;;;;;4992250;28;20027;-70
2021/06/04 13:12:18;;;;;;;3.97;2.40;;;40.30;23.70;;;;;;4992214;28;20050;-71
2021/06/04 13:14:45;;;;;;;5.00;2.20;;;39.60;24.40;;;;;;4991802;28;20026;-71